Time;durP1;ratioP1;P1;durP2;ratioP2;P2;SDS_P1;SDS_P2;PMS_P1;PMS_P2;Temp;Humidity;BMP_temperature;BMP_pressure;BME280_temperature;BME280_humidity;BME280_pressure;Samples;Min_cycle;Max_cycle;Signal;HPM_P1;HPM_P2
2022/03/19 00:01:07;;;;;;;35.67;21.48;;;7.50;48.70;;;;;;4970574;28;20106;-74
2022/03/19 00:03:33;;;;;;;32.85;20.13;;;7.50;48.70;;;;;;4955420;28;20106;-74
2022/03/19 00:05:59;;;;;;;34.65;21.33;;;7.50;48.60;;;;;;4955520;28;20024;-74
2022/03/19 00:08:26;;;;;;;28.45;18.38;;;7.40;48.70;;;;;;4955479;28;20536;-74
2022/03/19 00:10:52;;;;;;;32.78;20.75;;;7.40;48.50;;;;;;4955426;28;20031;-74
2022/03/19 00:13:18;;;;;;;35.08;20.50;;;7.40;48.60;;;;;;4954823;28;20390;-74
2022/03/19 00:15:44;;;;;;;35.75;21.15;;;7.40;48.60;;;;;;4955325;28;20034;-74
2022/03/19 00:18:09;;;;;;;32.25;18.40;;;7.40;48.70;;;;;;4955236;28;20110;-74
2022/03/19 00:20:37;;;;;;;34.72;22.35;;;7.30;48.50;;;;;;4955320;28;20027;-74
2022/03/19 00:23:04;;;;;;;33.55;21.15;;;7.30;48.70;;;;;;4970032;28;20158;-74
2022/03/19 00:25:30;;;;;;;30.83;20.05;;;7.30;48.70;;;;;;4955158;28;20032;-75
2022/03/19 00:27:56;;;;;;;33.15;19.52;;;7.30;48.70;;;;;;4955177;28;20027;-74
2022/03/19 00:30:22;;;;;;;33.85;20.67;;;7.30;48.70;;;;;;4955086;28;20083;-75
2022/03/19 00:32:48;;;;;;;34.60;20.58;;;7.20;48.80;;;;;;4955134;28;20035;-74
2022/03/19 00:35:15;;;;;;;31.95;19.13;;;7.20;48.80;;;;;;4953829;29;20027;-74
2022/03/19 00:37:49;;;;;;;31.70;19.90;;;7.20;48.80;;;;;;4954949;28;20028;-74
2022/03/19 00:40:16;;;;;;;;;;;7.20;49.00;;;;;;4955688;28;20389;-74
2022/03/19 00:42:42;;;;;;;28.45;18.17;;;7.20;48.40;;;;;;4969933;28;19957;-74
2022/03/19 00:45:09;;;;;;;35.15;20.15;;;7.20;48.60;;;;;;4955610;28;20027;-74
2022/03/19 00:47:35;;;;;;;40.30;22.95;;;7.20;48.90;;;;;;4954964;28;20370;-74
2022/03/19 00:50:03;;;;;;;33.67;21.13;;;7.10;49.20;;;;;;4954912;28;20059;-74
2022/03/19 00:52:28;;;;;;;29.13;19.17;;;7.10;49.20;;;;;;4969776;28;20027;-74
2022/03/19 00:54:54;;;;;;;34.17;20.30;;;7.10;49.10;;;;;;4954805;28;20100;-74
2022/03/19 00:57:20;;;;;;;37.70;22.05;;;7.10;49.10;;;;;;4953437;28;20117;-74
2022/03/19 00:59:45;;;;;;;40.00;24.30;;;7.10;49.20;;;;;;4954823;28;20485;-74
2022/03/19 01:02:11;;;;;;;42.38;23.83;;;7.00;49.30;;;;;;4953993;28;20023;-74
2022/03/19 01:04:37;;;;;;;44.10;24.27;;;7.00;49.80;;;;;;4954104;28;20024;-74
2022/03/19 01:07:03;;;;;;;38.72;23.33;;;7.00;50.30;;;;;;4954448;29;20389;-74
2022/03/19 01:09:29;;;;;;;40.55;22.83;;;7.00;50.30;;;;;;4954751;28;20027;-74
2022/03/19 01:11:54;;;;;;;42.40;25.50;;;7.00;50.10;;;;;;4953336;28;20389;-74
2022/03/19 01:14:20;;;;;;;38.97;23.52;;;7.00;50.30;;;;;;4972103;28;20488;-74
2022/03/19 01:16:46;;;;;;;50.13;26.40;;;7.00;50.10;;;;;;4973683;28;20031;-74
2022/03/19 01:19:12;;;;;;;46.83;25.88;;;7.00;50.20;;;;;;4971304;28;20031;-74
2022/03/19 01:21:39;;;;;;;42.60;26.23;;;7.00;50.30;;;;;;4945173;29;20494;-74
2022/03/19 01:24:05;;;;;;;41.40;24.05;;;7.00;50.20;;;;;;4955279;28;20085;-74
2022/03/19 01:26:31;;;;;;;46.17;26.50;;;6.90;50.10;;;;;;4958047;28;20023;-74
2022/03/19 01:28:58;;;;;;;49.85;28.15;;;6.90;50.30;;;;;;4972809;28;20111;-75
2022/03/19 01:31:26;;;;;;;39.63;23.48;;;6.90;50.50;;;;;;4968179;28;20027;-74
2022/03/19 01:33:55;;;;;;;44.35;25.33;;;6.90;50.40;;;;;;4967946;28;20027;-74
2022/03/19 01:36:21;;;;;;;41.20;24.88;;;6.80;50.60;;;;;;4957818;28;20437;-74
2022/03/19 01:38:47;;;;;;;38.03;23.15;;;6.80;50.40;;;;;;4957869;28;20023;-74
2022/03/19 01:41:13;;;;;;;43.90;24.00;;;6.80;50.40;;;;;;4957784;28;20047;-74
2022/03/19 01:43:39;;;;;;;36.83;23.17;;;6.80;50.50;;;;;;4957466;28;20027;-74
2022/03/19 01:46:07;;;;;;;40.25;23.98;;;6.80;50.50;;;;;;4956861;28;20019;-74
2022/03/19 01:48:33;;;;;;;45.80;24.90;;;6.70;50.60;;;;;;4957596;28;20062;-74
2022/03/19 01:50:59;;;;;;;43.25;25.55;;;6.70;50.70;;;;;;4957483;29;20436;-74
2022/03/19 01:53:25;;;;;;;48.05;25.45;;;6.70;50.80;;;;;;4957199;28;20027;-74
2022/03/19 01:55:53;;;;;;;43.20;25.33;;;6.70;51.00;;;;;;4957502;28;20512;-75
2022/03/19 01:58:19;;;;;;;33.40;21.58;;;6.70;51.00;;;;;;4957203;28;20119;-74
2022/03/19 02:00:45;;;;;;;39.70;23.27;;;6.70;50.80;;;;;;4955748;29;20389;-74
2022/03/19 02:03:12;;;;;;;45.30;25.98;;;6.60;50.90;;;;;;4957181;29;20384;-74
2022/03/19 02:05:38;;;;;;;44.53;25.65;;;6.60;51.10;;;;;;4956236;28;20501;-74
2022/03/19 02:08:04;;;;;;;42.65;24.83;;;6.60;51.30;;;;;;4974995;28;20399;-74
2022/03/19 02:10:30;;;;;;;45.58;26.10;;;6.60;51.30;;;;;;4976353;28;20027;-74
2022/03/19 02:12:56;;;;;;;47.40;26.25;;;6.60;51.40;;;;;;4967405;28;20027;-74
2022/03/19 02:15:22;;;;;;;46.92;26.42;;;6.60;51.40;;;;;;4957112;28;20078;-75
2022/03/19 02:17:48;;;;;;;44.38;27.88;;;6.50;51.50;;;;;;4956603;28;20066;-74
2022/03/19 02:20:14;;;;;;;42.00;25.20;;;6.50;51.50;;;;;;4955730;29;20098;-74
2022/03/19 02:22:40;;;;;;;40.88;23.23;;;6.50;51.40;;;;;;4956927;28;20059;-74
2022/03/19 02:27:50;;;;;;;;;;;6.50;51.60;;;;;;4957209;29;20086;-75
2022/03/19 02:30:16;;;;;;;47.45;24.58;;;6.50;51.00;;;;;;4954114;28;20320;-74
2022/03/19 02:32:44;;;;;;;48.55;28.42;;;6.40;51.00;;;;;;4953769;28;20074;-75
2022/03/19 02:35:10;;;;;;;50.90;28.90;;;6.40;51.40;;;;;;4969105;28;20116;-74
2022/03/19 02:37:48;;;;;;;51.80;28.60;;;6.40;51.70;;;;;;4956255;28;20468;-74
2022/03/19 02:40:19;;;;;;;46.90;27.55;;;6.40;52.00;;;;;;4956657;28;20028;-75
2022/03/19 02:42:50;;;;;;;46.63;27.00;;;6.40;52.10;;;;;;4971431;28;20020;-74
2022/03/19 02:45:16;;;;;;;52.65;29.40;;;6.40;52.40;;;;;;4956565;28;20030;-74
2022/03/19 02:47:57;;;;;;;50.90;30.20;;;6.40;52.70;;;;;;4956542;29;20031;-75
2022/03/19 02:50:30;;;;;;;46.88;27.13;;;6.40;52.90;;;;;;4956514;29;20039;-74
2022/03/19 02:52:57;;;;;;;42.83;26.40;;;6.40;52.80;;;;;;4955668;29;20113;-74
2022/03/19 02:55:24;;;;;;;50.13;27.55;;;6.40;52.50;;;;;;4971219;28;20086;-75
2022/03/19 02:57:50;;;;;;;53.28;30.75;;;6.50;52.40;;;;;;4956059;28;20457;-74
2022/03/19 03:00:16;;;;;;;54.15;32.88;;;6.50;52.50;;;;;;4956275;28;20385;-74
2022/03/19 03:02:42;;;;;;;54.75;31.48;;;6.40;52.60;;;;;;4956282;28;20023;-74
2022/03/19 03:05:11;;;;;;;51.15;28.92;;;6.40;52.50;;;;;;4956148;28;20095;-74
2022/03/19 03:07:36;;;;;;;53.63;31.95;;;6.40;52.40;;;;;;4955585;29;20031;-74
2022/03/19 03:10:02;;;;;;;48.63;28.00;;;6.40;52.50;;;;;;4955895;29;20042;-74
2022/03/19 03:12:28;;;;;;;49.67;29.88;;;6.40;52.30;;;;;;4955907;29;20035;-74
2022/03/19 03:14:53;;;;;;;49.03;28.50;;;6.30;52.30;;;;;;4955853;29;20103;-74
2022/03/19 03:17:19;;;;;;;53.22;31.02;;;6.30;52.30;;;;;;4955993;29;20057;-74
2022/03/19 03:19:45;;;;;;;51.08;30.35;;;6.30;52.70;;;;;;4956130;29;20027;-74
2022/03/19 03:22:11;;;;;;;56.88;32.03;;;6.30;53.30;;;;;;4954834;28;20027;-74
2022/03/19 03:24:36;;;;;;;56.05;31.73;;;6.20;53.40;;;;;;4954868;29;20118;-74
2022/03/19 03:27:02;;;;;;;51.38;29.85;;;6.20;53.20;;;;;;4956154;28;20038;-74
2022/03/19 03:29:28;;;;;;;52.42;30.13;;;6.20;53.20;;;;;;4956010;29;20102;-75
2022/03/19 03:31:54;;;;;;;55.45;30.60;;;6.20;53.20;;;;;;4970794;28;20027;-74
2022/03/19 03:34:19;;;;;;;54.95;30.65;;;6.20;53.40;;;;;;4954936;29;20074;-75
2022/03/19 03:36:45;;;;;;;51.15;29.95;;;6.20;53.20;;;;;;4955943;29;20031;-75
2022/03/19 03:39:11;;;;;;;50.22;29.55;;;6.20;53.20;;;;;;4955773;29;20031;-74
2022/03/19 03:41:37;;;;;;;49.53;28.48;;;6.20;53.10;;;;;;4954604;29;20028;-74
2022/03/19 03:44:03;;;;;;;61.55;33.90;;;6.20;53.00;;;;;;4955773;29;20078;-74
2022/03/19 03:46:28;;;;;;;52.35;29.10;;;6.10;53.10;;;;;;4962872;28;20063;-74
2022/03/19 03:48:54;;;;;;;50.40;30.27;;;6.10;53.00;;;;;;4957355;28;20451;-74
2022/03/19 03:51:20;;;;;;;57.00;30.88;;;6.10;52.90;;;;;;4955395;28;20035;-74
2022/03/19 03:53:46;;;;;;;55.63;30.00;;;6.10;53.00;;;;;;4955411;28;20497;-74
2022/03/19 03:56:13;;;;;;;59.45;32.83;;;6.00;53.20;;;;;;4970265;28;20043;-74
2022/03/19 03:58:40;;;;;;;53.38;30.75;;;6.00;53.40;;;;;;4969843;28;20344;-74
2022/03/19 04:01:07;;;;;;;57.13;31.17;;;6.00;53.50;;;;;;4954961;28;20055;-74
2022/03/19 04:03:34;;;;;;;50.33;29.80;;;6.00;53.50;;;;;;4968264;28;20531;-74
2022/03/19 04:06:00;;;;;;;50.90;29.60;;;6.00;53.30;;;;;;4969743;28;20037;-74
2022/03/19 04:08:26;;;;;;;57.72;30.45;;;6.00;53.30;;;;;;4954872;29;20477;-74
2022/03/19 04:10:52;;;;;;;59.30;34.05;;;5.90;53.30;;;;;;4955303;29;20030;-74
2022/03/19 04:13:17;;;;;;;63.83;34.80;;;5.90;53.60;;;;;;4955315;29;20387;-74
2022/03/19 04:15:43;;;;;;;53.33;31.92;;;5.90;53.90;;;;;;4955298;29;20058;-74
2022/03/19 04:18:09;;;;;;;53.47;29.35;;;5.90;54.00;;;;;;4955148;29;20481;-74
2022/03/19 04:20:35;;;;;;;51.38;29.88;;;5.90;53.90;;;;;;4955171;29;20027;-74
2022/03/19 04:23:01;;;;;;;54.65;29.83;;;5.90;53.60;;;;;;4943064;29;20465;-74
2022/03/19 04:25:27;;;;;;;56.00;32.08;;;5.80;53.60;;;;;;4951642;28;20047;-74
2022/03/19 04:27:56;;;;;;;60.53;33.67;;;5.80;53.80;;;;;;4954830;28;20023;-74
2022/03/19 04:30:27;;;;;;;58.28;33.40;;;5.80;54.00;;;;;;4969815;28;20117;-74
2022/03/19 04:33:04;;;;;;;61.03;33.88;;;5.80;54.10;;;;;;4955020;28;20106;-74
2022/03/19 04:38:20;;;;;;;50.38;27.65;;;5.80;54.70;;;;;;4955012;29;20090;-74
2022/03/19 04:40:49;;;;;;;60.67;30.17;;;5.80;54.40;;;;;;4954916;28;20100;-74
2022/03/19 04:43:14;;;;;;;62.90;34.40;;;5.80;54.10;;;;;;4954894;28;20020;-74
2022/03/19 04:45:42;;;;;;;61.42;33.40;;;5.80;54.20;;;;;;4954773;29;20019;-74
2022/03/19 04:48:08;;;;;;;55.00;30.60;;;5.80;54.80;;;;;;4954815;28;20023;-73
2022/03/19 04:50:39;;;;;;;53.13;30.42;;;5.80;54.60;;;;;;4954602;28;20090;-75
2022/03/19 04:53:07;;;;;;;56.38;30.05;;;5.80;54.50;;;;;;4954697;28;20027;-74
2022/03/19 04:55:34;;;;;;;59.20;32.30;;;5.80;54.40;;;;;;4969571;28;20023;-74
2022/03/19 04:58:00;;;;;;;52.92;29.98;;;5.80;54.50;;;;;;4969054;28;20066;-75
2022/03/19 05:00:25;;;;;;;52.80;28.55;;;5.70;54.50;;;;;;4973664;28;20023;-74
2022/03/19 05:02:51;;;;;;;43.50;26.30;;;5.70;54.30;;;;;;4972729;28;20077;-73
2022/03/19 05:05:18;;;;;;;63.60;33.80;;;5.70;54.10;;;;;;4972771;28;20162;-74
2022/03/19 05:07:44;;;;;;;66.68;35.70;;;5.70;54.40;;;;;;4953556;28;20042;-74
2022/03/19 05:12:54;;;;;;;53.13;28.60;;;5.70;54.80;;;;;;4954780;29;20034;-74
2022/03/19 05:15:20;;;;;;;52.35;28.15;;;5.70;54.50;;;;;;4969264;28;20043;-74
2022/03/19 05:17:46;;;;;;;50.28;29.67;;;5.70;54.30;;;;;;4969084;28;20089;-74
2022/03/19 05:20:13;;;;;;;53.17;29.98;;;5.70;54.20;;;;;;4954350;28;20027;-74
2022/03/19 05:22:39;;;;;;;52.20;29.70;;;5.70;54.20;;;;;;4954049;28;20051;-75
2022/03/19 05:25:06;;;;;;;53.20;29.88;;;5.70;54.20;;;;;;4954571;28;20508;-74
2022/03/19 05:27:33;;;;;;;58.03;30.17;;;5.60;54.20;;;;;;4954888;28;20477;-75
2022/03/19 05:29:58;;;;;;;54.13;31.23;;;5.70;54.30;;;;;;4955213;29;20065;-74
2022/03/19 05:32:25;;;;;;;49.70;28.70;;;5.70;54.40;;;;;;4955058;28;20549;-74
2022/03/19 05:34:53;;;;;;;52.83;30.25;;;5.70;54.30;;;;;;4955174;28;20477;-75
2022/03/19 05:37:19;;;;;;;50.60;28.95;;;5.70;54.40;;;;;;4969745;28;20027;-74
2022/03/19 05:39:45;;;;;;;51.05;28.40;;;5.60;54.30;;;;;;4954471;28;20478;-74
2022/03/19 05:42:13;;;;;;;51.60;31.50;;;5.70;54.30;;;;;;4954612;28;20054;-74
2022/03/19 05:44:39;;;;;;;53.65;31.92;;;5.60;54.50;;;;;;4954354;29;20054;-74
2022/03/19 05:47:05;;;;;;;62.95;32.50;;;5.70;54.70;;;;;;4969164;28;20054;-74
2022/03/19 05:49:31;;;;;;;58.50;33.58;;;5.70;54.80;;;;;;4968974;28;20461;-74
2022/03/19 05:51:58;;;;;;;63.03;34.17;;;5.60;54.90;;;;;;4953067;28;20065;-74
2022/03/19 05:54:25;;;;;;;53.25;32.45;;;5.70;55.10;;;;;;4953018;28;20035;-74
2022/03/19 05:56:51;;;;;;;52.63;29.00;;;5.70;55.20;;;;;;4969330;28;20397;-74
2022/03/19 05:59:19;;;;;;;51.33;30.13;;;5.80;55.10;;;;;;4953999;28;20498;-74
2022/03/19 06:01:44;;;;;;;62.47;33.72;;;5.80;55.00;;;;;;4954194;28;20082;-74
2022/03/19 06:04:10;;;;;;;62.50;35.47;;;5.80;55.40;;;;;;4954222;28;20425;-74
2022/03/19 06:06:36;;;;;;;58.05;32.90;;;5.90;55.70;;;;;;4954202;28;20491;-74
2022/03/19 06:09:03;;;;;;;52.28;30.23;;;5.90;55.70;;;;;;4951962;28;20519;-74
2022/03/19 06:11:28;;;;;;;59.33;32.33;;;5.90;55.70;;;;;;4955782;29;20027;-74
2022/03/19 06:13:54;;;;;;;53.60;30.90;;;6.00;55.60;;;;;;4957530;29;20126;-74
2022/03/19 06:16:20;;;;;;;50.42;28.88;;;6.00;55.50;;;;;;4957509;29;20038;-74
2022/03/19 06:18:49;;;;;;;46.15;27.50;;;6.10;55.50;;;;;;4955953;29;20027;-74
2022/03/19 06:21:17;;;;;;;52.40;30.45;;;6.10;55.20;;;;;;4957415;28;20015;-74
2022/03/19 06:23:45;;;;;;;53.00;31.73;;;6.20;55.20;;;;;;4957342;29;20023;-74
2022/03/19 06:26:11;;;;;;;54.47;30.50;;;6.20;55.30;;;;;;4957175;28;20389;-74
2022/03/19 06:28:37;;;;;;;56.22;32.10;;;6.20;55.20;;;;;;4957052;28;20042;-75
2022/03/19 06:31:03;;;;;;;55.08;32.08;;;6.30;55.30;;;;;;4956647;28;20027;-74
2022/03/19 06:33:28;;;;;;;54.58;29.25;;;6.30;55.40;;;;;;4957172;28;20027;-74
2022/03/19 06:38:39;;;;;;;47.88;27.42;;;6.50;55.30;;;;;;4956968;29;20038;-75
2022/03/19 06:41:05;;;;;;;46.92;27.42;;;6.50;55.10;;;;;;4957025;29;20027;-74
2022/03/19 06:43:31;;;;;;;54.60;33.53;;;6.60;55.00;;;;;;4957041;29;20465;-74
2022/03/19 06:45:59;;;;;;;52.97;31.33;;;6.60;54.90;;;;;;4971873;28;20023;-74
2022/03/19 06:48:26;;;;;;;53.10;30.73;;;6.70;54.80;;;;;;4956838;28;20469;-74
2022/03/19 06:50:54;;;;;;;49.13;29.15;;;6.70;54.80;;;;;;4956844;29;20106;-74
2022/03/19 06:53:23;;;;;;;45.78;28.05;;;6.80;54.60;;;;;;4956892;28;20504;-75
2022/03/19 06:55:49;;;;;;;50.80;28.52;;;6.90;54.50;;;;;;4971714;28;20098;-74
2022/03/19 06:58:15;;;;;;;51.78;29.73;;;7.00;54.50;;;;;;4956585;29;20047;-74
2022/03/19 07:00:41;;;;;;;51.70;29.15;;;7.00;54.30;;;;;;4956780;29;20027;-74
2022/03/19 07:03:07;;;;;;;48.83;29.60;;;7.10;54.10;;;;;;4956652;28;20028;-74
2022/03/19 07:05:33;;;;;;;48.78;29.73;;;7.20;53.80;;;;;;4956292;28;20019;-74
2022/03/19 07:08:01;;;;;;;43.38;26.10;;;7.40;53.60;;;;;;4956611;29;20059;-74
2022/03/19 07:10:27;;;;;;;48.45;29.08;;;7.50;53.40;;;;;;4967629;28;20027;-74
2022/03/19 07:12:55;;;;;;;43.97;27.02;;;7.50;53.10;;;;;;4937362;29;20095;-74
2022/03/19 07:15:28;;;;;;;46.25;26.13;;;7.70;52.90;;;;;;4937374;29;20393;-74
2022/03/19 07:17:55;;;;;;;45.10;26.35;;;7.80;52.80;;;;;;4937285;29;20016;-74
2022/03/19 07:20:21;;;;;;;43.75;25.20;;;7.90;52.60;;;;;;4937273;29;20019;-75
2022/03/19 07:22:51;;;;;;;46.45;26.30;;;8.00;52.40;;;;;;4937109;29;20443;-74
2022/03/19 07:25:19;;;;;;;45.38;25.10;;;8.10;51.90;;;;;;4938473;29;20458;-74
2022/03/19 07:27:45;;;;;;;40.33;24.10;;;8.20;51.10;;;;;;4956262;28;20035;-75
2022/03/19 07:30:12;;;;;;;40.53;23.15;;;8.30;51.00;;;;;;4956175;29;20055;-74
2022/03/19 07:32:38;;;;;;;36.35;22.35;;;8.40;50.60;;;;;;4971120;28;20028;-74
2022/03/19 07:35:05;;;;;;;35.13;20.60;;;8.50;50.20;;;;;;4970698;28;20437;-74
2022/03/19 07:37:31;;;;;;;40.53;23.52;;;8.60;50.10;;;;;;4955627;28;20466;-75
2022/03/19 07:39:57;;;;;;;39.67;23.85;;;8.70;49.60;;;;;;4970097;28;20050;-74
2022/03/19 07:42:23;;;;;;;41.00;22.02;;;8.80;49.20;;;;;;4954591;28;20038;-74
2022/03/19 07:44:49;;;;;;;44.92;24.95;;;8.90;49.20;;;;;;4955557;28;20031;-74
2022/03/19 07:47:15;;;;;;;45.28;24.60;;;9.00;48.90;;;;;;4970211;28;20024;-74
2022/03/19 07:49:41;;;;;;;40.42;23.25;;;9.10;48.30;;;;;;4970652;28;20081;-74
2022/03/19 07:52:10;;;;;;;42.17;24.98;;;9.20;47.20;;;;;;4970491;28;20031;-74
2022/03/19 07:54:37;;;;;;;43.38;24.02;;;9.40;45.50;;;;;;4955802;28;20078;-74
2022/03/19 07:57:04;;;;;;;42.00;23.73;;;9.50;45.60;;;;;;4955655;29;20023;-74
2022/03/19 07:59:30;;;;;;;36.90;22.20;;;9.60;45.70;;;;;;4969848;28;20055;-74
2022/03/19 08:01:56;;;;;;;36.30;20.75;;;9.80;46.20;;;;;;4955890;28;20023;-74
2022/03/19 08:04:22;;;;;;;40.85;24.13;;;10.00;45.80;;;;;;4955416;28;20027;-74
2022/03/19 08:06:53;;;;;;;44.15;25.58;;;10.10;45.40;;;;;;4955615;28;20424;-74
2022/03/19 08:09:19;;;;;;;46.10;26.75;;;10.40;44.80;;;;;;4955492;29;20038;-74
2022/03/19 08:11:47;;;;;;;47.38;27.10;;;10.50;43.50;;;;;;4969652;28;20424;-75
2022/03/19 08:14:17;;;;;;;47.10;26.80;;;10.80;43.40;;;;;;4955330;28;20031;-75
2022/03/19 08:16:43;;;;;;;45.65;26.67;;;11.00;43.50;;;;;;4955613;28;20038;-74
2022/03/19 08:19:12;;;;;;;43.92;25.92;;;11.30;43.20;;;;;;4955162;29;20035;-75
2022/03/19 08:21:39;;;;;;;47.53;27.83;;;11.50;42.50;;;;;;4955171;28;20020;-74
2022/03/19 08:24:06;;;;;;;45.80;25.98;;;11.70;41.50;;;;;;4955169;28;20506;-75
2022/03/19 08:26:33;;;;;;;49.63;26.48;;;11.80;40.80;;;;;;4955182;28;20028;-75
2022/03/19 08:28:58;;;;;;;46.13;27.83;;;12.00;39.80;;;;;;4955116;28;20023;-75
2022/03/19 08:31:24;;;;;;;48.55;26.33;;;12.10;39.70;;;;;;4955158;28;20496;-75
2022/03/19 08:33:50;;;;;;;44.08;27.30;;;12.10;39.10;;;;;;4954684;28;20549;-75
2022/03/19 08:36:16;;;;;;;41.13;24.55;;;12.10;38.10;;;;;;4955136;28;20027;-75
2022/03/19 08:41:26;;;;;;;46.30;25.88;;;12.20;38.60;;;;;;4940735;29;20088;-75
2022/03/19 08:43:52;;;;;;;40.15;23.60;;;12.20;38.10;;;;;;4938816;29;20509;-75
2022/03/19 08:46:19;;;;;;;37.58;24.35;;;12.20;38.60;;;;;;4954325;28;20019;-74
2022/03/19 08:48:45;;;;;;;47.08;25.58;;;12.20;38.00;;;;;;4969617;28;20118;-74
2022/03/19 08:53:55;;;;;;;41.85;24.95;;;12.20;37.70;;;;;;4948360;29;20405;-74
2022/03/19 08:56:21;;;;;;;40.47;24.90;;;12.20;37.40;;;;;;4953929;28;20031;-74
2022/03/19 08:58:47;;;;;;;44.42;25.13;;;12.20;37.50;;;;;;4952669;29;20050;-74
2022/03/19 09:01:13;;;;;;;42.15;23.63;;;12.30;37.70;;;;;;4953546;29;20023;-75
2022/03/19 09:03:39;;;;;;;38.65;24.23;;;12.30;37.60;;;;;;4954310;28;20023;-75
2022/03/19 09:06:05;;;;;;;37.42;22.77;;;12.40;37.80;;;;;;4954938;28;20339;-74
2022/03/19 09:08:30;;;;;;;36.60;22.73;;;12.50;37.70;;;;;;4954191;28;20031;-75
2022/03/19 09:10:57;;;;;;;38.83;23.58;;;12.60;37.60;;;;;;4953657;28;20105;-74
2022/03/19 09:13:23;;;;;;;38.03;23.17;;;12.60;37.90;;;;;;4953553;29;20063;-74
2022/03/19 09:15:49;;;;;;;37.90;22.38;;;12.70;37.80;;;;;;4955032;28;20024;-75
2022/03/19 09:18:16;;;;;;;35.95;22.80;;;12.80;37.40;;;;;;4969251;28;20058;-74
2022/03/19 09:20:42;;;;;;;37.72;22.17;;;12.90;37.60;;;;;;4954044;28;20032;-75
2022/03/19 09:23:09;;;;;;;41.38;23.88;;;13.00;37.80;;;;;;4969482;28;20079;-75
2022/03/19 09:25:35;;;;;;;38.08;23.40;;;13.10;37.30;;;;;;4954691;28;20031;-75
2022/03/19 09:28:01;;;;;;;38.70;23.38;;;13.20;37.30;;;;;;4954604;28;20031;-75
2022/03/19 09:30:26;;;;;;;41.97;26.60;;;13.20;36.70;;;;;;4954620;28;20050;-75
2022/03/19 09:32:56;;;;;;;45.60;26.45;;;13.30;36.50;;;;;;4954673;28;20042;-75
2022/03/19 09:35:23;;;;;;;42.97;26.10;;;13.30;36.60;;;;;;4953732;28;20027;-74
2022/03/19 09:37:48;;;;;;;39.92;25.02;;;13.30;36.60;;;;;;4960953;28;20024;-74
2022/03/19 09:40:14;;;;;;;47.53;26.77;;;13.30;36.70;;;;;;4969185;28;20110;-74
2022/03/19 09:42:51;;;;;;;42.63;24.98;;;13.30;36.20;;;;;;4953226;29;20030;-75
2022/03/19 09:45:19;;;;;;;43.63;26.15;;;13.30;36.20;;;;;;4955896;28;20101;-75
2022/03/19 09:47:46;;;;;;;43.10;25.63;;;13.30;36.10;;;;;;4956676;28;20030;-75
2022/03/19 09:50:12;;;;;;;44.90;28.05;;;13.30;36.60;;;;;;4971731;28;20062;-75
2022/03/19 09:52:40;;;;;;;41.80;26.27;;;13.30;36.80;;;;;;4957218;28;20393;-75
2022/03/19 09:55:08;;;;;;;41.42;26.05;;;13.30;36.80;;;;;;4957538;29;20110;-75
2022/03/19 09:57:35;;;;;;;40.28;24.73;;;13.30;37.10;;;;;;4956119;29;20381;-75
2022/03/19 10:00:00;;;;;;;35.42;22.95;;;13.40;37.10;;;;;;4956331;29;20035;-75
2022/03/19 10:02:26;;;;;;;40.13;25.67;;;13.40;37.00;;;;;;4956793;28;20035;-75
2022/03/19 10:04:54;;;;;;;37.33;23.50;;;13.50;36.90;;;;;;4973257;28;20036;-74
2022/03/19 10:10:11;;;;;;;34.88;23.80;;;13.60;36.50;;;;;;4958621;29;20051;-75
2022/03/19 10:12:39;;;;;;;43.15;25.27;;;13.60;36.60;;;;;;4956742;28;20023;-75
2022/03/19 10:15:09;;;;;;;42.30;26.48;;;13.70;36.70;;;;;;4944833;29;20023;-75
2022/03/19 10:17:39;;;;;;;45.75;28.25;;;13.70;36.60;;;;;;4938487;29;20028;-75
2022/03/19 10:20:07;;;;;;;43.80;27.13;;;13.70;35.60;;;;;;4937360;28;20023;-75
2022/03/19 10:22:34;;;;;;;49.10;27.73;;;13.70;35.90;;;;;;4938513;29;20110;-75
2022/03/19 10:25:08;;;;;;;48.28;28.83;;;13.70;36.20;;;;;;4953068;28;20039;-75
2022/03/19 10:27:39;;;;;;;46.70;27.80;;;13.80;35.90;;;;;;4940607;28;20058;-75
2022/03/19 10:30:18;;;;;;;47.50;25.90;;;13.70;35.90;;;;;;4954227;29;20059;-75
2022/03/19 10:32:51;;;;;;;43.17;26.00;;;13.70;35.70;;;;;;4951278;29;20102;-75
2022/03/19 10:35:27;;;;;;;42.60;25.42;;;13.70;35.90;;;;;;4960486;28;20378;-75
2022/03/19 10:37:54;;;;;;;48.58;26.27;;;13.70;35.90;;;;;;4966870;28;20035;-74
2022/03/19 10:40:20;;;;;;;49.05;27.10;;;13.70;35.20;;;;;;4972554;28;20028;-75
2022/03/19 10:42:46;;;;;;;40.92;25.10;;;13.70;35.10;;;;;;4961865;28;20027;-75
2022/03/19 10:45:20;;;;;;;47.35;27.27;;;13.70;35.40;;;;;;4991580;28;20050;-75
2022/03/19 10:47:47;;;;;;;40.53;25.10;;;13.70;35.20;;;;;;4959671;28;20067;-75
2022/03/19 10:50:24;;;;;;;44.30;27.70;;;13.70;35.20;;;;;;4967775;28;20035;-75
2022/03/19 10:52:51;;;;;;;49.60;27.77;;;13.80;34.90;;;;;;4957137;28;20038;-75
2022/03/19 10:55:18;;;;;;;45.92;28.67;;;13.80;34.80;;;;;;4956140;28;20016;-75
2022/03/19 10:57:45;;;;;;;42.13;26.67;;;13.80;34.50;;;;;;4955653;28;20090;-75
2022/03/19 11:00:11;;;;;;;40.75;24.65;;;13.80;35.10;;;;;;4955912;28;20389;-75
2022/03/19 11:02:45;;;;;;;49.35;30.13;;;13.90;35.40;;;;;;4956677;29;20158;-75
2022/03/19 11:05:12;;;;;;;45.10;27.73;;;13.90;35.20;;;;;;4956940;28;20034;-75
2022/03/19 11:07:43;;;;;;;39.58;26.30;;;14.00;34.90;;;;;;4956829;28;20034;-75
2022/03/19 11:10:11;;;;;;;44.20;26.08;;;14.10;35.10;;;;;;4971652;28;20023;-75
2022/03/19 11:12:42;;;;;;;37.90;23.75;;;14.20;35.10;;;;;;4956783;28;20028;-75
2022/03/19 11:15:09;;;;;;;38.58;22.45;;;14.30;35.00;;;;;;4956813;28;20110;-75
2022/03/19 11:17:39;;;;;;;43.45;24.83;;;14.40;35.10;;;;;;4956572;28;20027;-75
2022/03/19 11:20:08;;;;;;;37.70;24.17;;;14.50;34.80;;;;;;4956576;28;20023;-75
2022/03/19 11:22:47;;;;;;;36.05;23.55;;;14.60;34.70;;;;;;4956273;28;20377;-75
2022/03/19 11:25:31;;;;;;;38.80;25.83;;;14.70;34.30;;;;;;4971116;28;20529;-75
2022/03/19 11:28:01;;;;;;;43.40;26.47;;;14.80;34.00;;;;;;4956455;29;20082;-75
2022/03/19 11:30:30;;;;;;;40.33;26.70;;;14.80;34.60;;;;;;4956113;29;20342;-75
2022/03/19 11:33:19;;;;;;;43.42;26.50;;;14.80;33.50;;;;;;4971060;28;20397;-75
2022/03/19 11:36:04;;;;;;;38.63;24.13;;;14.80;34.00;;;;;;4968351;28;20043;-74
2022/03/19 11:38:31;;;;;;;;;;;14.90;33.90;;;;;;4971506;28;20499;-75
2022/03/19 11:40:57;;;;;;;38.83;23.88;;;15.00;35.00;;;;;;4956121;28;20001;-75
2022/03/19 11:43:32;;;;;;;37.17;23.80;;;15.10;33.50;;;;;;4956186;28;20023;-75
2022/03/19 11:46:05;;;;;;;36.70;22.83;;;15.10;33.30;;;;;;4956164;28;20482;-75
2022/03/19 11:48:34;;;;;;;37.60;22.88;;;15.20;33.60;;;;;;4954761;28;20031;-75
2022/03/19 11:51:19;;;;;;;35.90;22.55;;;15.30;32.70;;;;;;4955947;28;20035;-75
2022/03/19 11:54:11;;;;;;;35.83;20.70;;;15.40;32.60;;;;;;4955997;28;20031;-75
2022/03/19 11:56:42;;;;;;;31.50;19.63;;;15.50;32.70;;;;;;4955996;28;20139;-75
2022/03/19 11:59:18;;;;;;;30.60;18.58;;;15.50;32.20;;;;;;4970526;28;20077;-75
2022/03/19 12:01:55;;;;;;;33.65;20.50;;;15.50;30.70;;;;;;4955877;28;20019;-75
2022/03/19 12:04:23;;;;;;;32.92;19.55;;;15.60;31.00;;;;;;4955820;28;20051;-75
2022/03/19 12:06:57;;;;;;;33.70;21.98;;;15.60;31.00;;;;;;4955653;28;20110;-75
2022/03/19 12:09:53;;;;;;;29.33;18.83;;;15.50;30.20;;;;;;4970120;28;20074;-74
2022/03/19 12:12:26;;;;;;;29.35;17.73;;;15.50;30.90;;;;;;4958397;28;20043;-75
2022/03/19 12:14:52;;;;;;;27.92;16.88;;;15.50;30.00;;;;;;4955554;28;20027;-75
2022/03/19 12:17:27;;;;;;;30.08;17.85;;;15.50;30.40;;;;;;4955455;28;20042;-74
2022/03/19 12:19:58;;;;;;;25.55;16.45;;;15.50;29.90;;;;;;4955563;28;20543;-75
2022/03/19 12:22:33;;;;;;;26.35;16.58;;;15.40;29.10;;;;;;4955465;28;20023;-75
2022/03/19 12:25:35;;;;;;;26.23;17.10;;;15.40;29.20;;;;;;4955493;28;20086;-75
2022/03/19 12:28:01;;;;;;;29.95;16.83;;;15.40;29.10;;;;;;4974540;28;20149;-75
2022/03/19 12:30:27;;;;;;;27.10;17.33;;;15.50;28.70;;;;;;4991858;28;20119;-75
2022/03/19 12:32:55;;;;;;;26.90;15.82;;;15.40;28.10;;;;;;4991821;28;20030;-75
2022/03/19 12:35:23;;;;;;;28.25;15.10;;;15.40;27.30;;;;;;4991708;28;20034;-75
2022/03/19 12:37:54;;;;;;;25.88;16.23;;;15.40;27.70;;;;;;4991811;28;20026;-75
2022/03/19 12:40:26;;;;;;;26.83;17.05;;;15.40;27.10;;;;;;4991707;28;20031;-75
2022/03/19 12:42:55;;;;;;;27.52;15.98;;;15.40;26.90;;;;;;4991708;28;20061;-75
2022/03/19 12:45:35;;;;;;;29.45;14.90;;;15.40;27.60;;;;;;4991714;28;20050;-75
2022/03/19 12:48:06;;;;;;;27.10;15.57;;;15.50;28.00;;;;;;4991629;28;20031;-75
2022/03/19 12:50:32;;;;;;;25.42;16.80;;;15.50;27.00;;;;;;4991635;28;20109;-74
2022/03/19 12:52:58;;;;;;;24.67;14.65;;;15.50;26.90;;;;;;4991554;28;20172;-75
2022/03/19 12:55:24;;;;;;;30.73;17.02;;;15.50;27.50;;;;;;4975189;28;20038;-75